Time;durP1;ratioP1;P1;durP2;ratioP2;P2;SDS_P1;SDS_P2;PMS_P1;PMS_P2;Temp;Humidity;BMP_temperature;BMP_pressure;BME280_temperature;BME280_humidity;BME280_pressure;Samples;Min_cycle;Max_cycle;Signal;HPM_P1;HPM_P2
2023/01/28 00:01:57;;;;;;;;;;;;;;;26.81;48.05;96366.72;575954;246;62754;-76
2023/01/28 00:04:25;;;;;;;;;;;;;;;26.79;47.81;96367.84;575699;246;66232;-76
2023/01/28 00:06:52;;;;;;;;;;;;;;;26.79;48.36;96369.73;575987;246;69326;-76
2023/01/28 00:09:20;;;;;;;;;;;;;;;26.78;48.28;96373.55;575923;246;62802;-76
2023/01/28 00:11:47;;;;;;;;;;;;;;;26.77;49.53;96371.98;576679;244;66613;-75
2023/01/28 00:14:14;;;;;;;;;;;;;;;26.76;48.25;96376.59;581259;244;66463;-76
2023/01/28 00:16:42;;;;;;;;;;;;;;;26.75;48.85;96372.30;581160;244;62766;-76
2023/01/28 00:19:09;;;;;;;;;;;;;;;26.74;49.24;96373.42;581086;244;68640;-76
2023/01/28 00:21:37;;;;;;;;;;;;;;;26.73;48.72;96371.82;581080;244;68552;-76
2023/01/28 00:24:05;;;;;;;;;;;;;;;26.71;48.86;96378.64;581171;244;64978;-76
2023/01/28 00:26:33;;;;;;;;;;;;;;;26.71;48.58;96374.07;581288;244;66583;-76
2023/01/28 00:29:00;;;;;;;;;;;;;;;26.70;48.65;96368.98;581140;244;66520;-76
2023/01/28 00:31:29;;;;;;;;;;;;;;;26.70;49.90;96382.47;581309;244;62878;-76
2023/01/28 00:33:57;;;;;;;;;;;;;;;26.69;48.77;96380.89;580997;244;68679;-76
2023/01/28 00:36:25;;;;;;;;;;;;;;;26.68;47.33;96376.60;581227;244;68707;-76
2023/01/28 00:38:57;;;;;;;;;;;;;;;26.67;48.29;96383.91;580981;244;66002;-76
2023/01/28 00:41:26;;;;;;;;;;;;;;;26.66;48.27;96387.72;581257;244;68853;-74
2023/01/28 00:43:54;;;;;;;;;;;;;;;26.65;49.69;96388.81;581195;244;66554;-75
2023/01/28 00:46:22;;;;;;;;;;;;;;;26.64;48.82;96398.02;581133;244;63591;-75
2023/01/28 00:48:49;;;;;;;;;;;;;;;26.64;51.04;96381.06;581213;244;69014;-75
2023/01/28 00:51:18;;;;;;;;;;;;;;;26.62;49.92;96399.45;581203;244;68027;-75
2023/01/28 00:53:46;;;;;;;;;;;;;;;26.61;48.64;96395.98;581058;244;62689;-75
2023/01/28 00:56:16;;;;;;;;;;;;;;;26.62;49.59;96396.77;581269;244;66209;-75
2023/01/28 00:58:44;;;;;;;;;;;;;;;26.60;47.65;96397.10;581282;244;68713;-75
2023/01/28 01:01:13;;;;;;;;;;;;;;;26.60;50.14;96399.80;581310;244;65680;-75
2023/01/28 01:03:42;;;;;;;;;;;;;;;26.57;48.86;96395.03;581012;244;67760;-74
2023/01/28 01:06:10;;;;;;;;;;;;;;;26.56;49.22;96391.55;581273;244;68762;-74
2023/01/28 01:08:41;;;;;;;;;;;;;;;26.56;49.87;96398.84;581262;244;63843;-74
2023/01/28 01:11:10;;;;;;;;;;;;;;;26.56;49.87;96396.16;581322;244;68855;-74
2023/01/28 01:13:38;;;;;;;;;;;;;;;26.53;49.07;96394.89;580999;244;68641;-74
2023/01/28 01:16:15;;;;;;;;;;;;;;;26.54;48.79;96406.45;581261;244;66126;-66
2023/01/28 01:18:43;;;;;;;;;;;;;;;26.53;50.23;96394.10;581220;244;66214;-66
2023/01/28 01:21:11;;;;;;;;;;;;;;;26.50;49.02;96398.20;581222;244;66742;-66
2023/01/28 01:23:39;;;;;;;;;;;;;;;26.49;48.95;96402.02;581000;244;65185;-66
2023/01/28 01:26:07;;;;;;;;;;;;;;;26.49;50.06;96393.12;581282;244;68993;-66
2023/01/28 01:28:35;;;;;;;;;;;;;;;26.48;47.66;96397.72;581210;244;66178;-66
2023/01/28 01:31:04;;;;;;;;;;;;;;;26.48;49.96;96394.24;581255;244;65193;-66
2023/01/28 01:33:33;;;;;;;;;;;;;;;26.47;49.39;96400.75;581006;244;66161;-67
2023/01/28 01:36:01;;;;;;;;;;;;;;;26.46;49.82;96399.16;581232;244;69266;-67
2023/01/28 01:38:29;;;;;;;;;;;;;;;26.44;48.25;96398.70;581239;244;62837;-67
2023/01/28 01:41:00;;;;;;;;;;;;;;;26.44;49.45;96404.88;581255;244;68737;-67
2023/01/28 01:43:46;;;;;;;;;;;;;;;26.44;49.27;96412.17;581187;244;69525;-68
2023/01/28 01:46:15;;;;;;;;;;;;;;;26.42;49.84;96409.79;581273;244;65036;-67
2023/01/28 01:48:44;;;;;;;;;;;;;;;26.42;50.06;96406.31;581225;244;66054;-68
2023/01/28 01:51:22;;;;;;;;;;;;;;;26.40;49.14;96414.70;581213;244;68664;-68
2023/01/28 01:53:51;;;;;;;;;;;;;;;26.39;50.04;96417.73;581056;244;65075;-67
2023/01/28 01:56:21;;;;;;;;;;;;;;;26.39;49.61;96420.42;581228;244;66109;-67
2023/01/28 01:58:50;;;;;;;;;;;;;;;26.37;50.45;96419.95;581234;244;68696;-67
2023/01/28 02:01:19;;;;;;;;;;;;;;;26.36;49.64;96419.16;581263;244;62717;-67
2023/01/28 02:03:57;;;;;;;;;;;;;;;26.36;50.65;96413.77;581237;244;66582;-68
2023/01/28 02:06:25;;;;;;;;;;;;;;;26.34;49.26;96414.08;581299;244;68438;-67
2023/01/28 02:08:54;;;;;;;;;;;;;;;26.33;50.38;96415.20;581231;244;63820;-67
2023/01/28 02:11:24;;;;;;;;;;;;;;;26.32;49.45;96421.69;581220;244;68953;-67
2023/01/28 02:13:53;;;;;;;;;;;;;;;26.32;50.26;96418.20;575681;243;66685;-68
2023/01/28 02:16:21;;;;;;;;;;;;;;;26.30;50.94;96421.23;575952;246;62837;-68
2023/01/28 02:18:48;;;;;;;;;;;;;;;26.28;49.59;96423.45;575977;246;66504;-68
2023/01/28 02:21:18;;;;;;;;;;;;;;;26.29;49.82;96419.63;576034;246;66480;-68
2023/01/28 02:24:02;;;;;;;;;;;;;;;26.28;51.01;96423.45;575769;246;64982;-67
2023/01/28 02:26:46;;;;;;;;;;;;;;;26.27;48.83;96429.95;575670;246;68753;-66
2023/01/28 02:29:32;;;;;;;;;;;;;;;26.26;49.96;96430.27;575989;246;66684;-67
2023/01/28 02:32:02;;;;;;;;;;;;;;;26.24;50.21;96430.57;575939;246;62807;-67
2023/01/28 02:34:40;;;;;;;;;;;;;;;26.23;48.97;96438.98;575772;242;65919;-67
2023/01/28 02:37:09;;;;;;;;;;;;;;;26.22;49.41;96440.08;575894;246;67176;-67
2023/01/28 02:39:38;;;;;;;;;;;;;;;26.20;51.14;96440.41;575927;246;65086;-67
2023/01/28 02:42:13;;;;;;;;;;;;;;;26.20;49.90;96434.23;575996;246;69225;-67
2023/01/28 02:44:41;;;;;;;;;;;;;;;26.19;49.92;96441.53;575994;246;68641;-67
2023/01/28 02:49:59;;;;;;;;;;;;;;;26.17;49.13;96443.75;575976;242;66647;-67
2023/01/28 02:55:42;;;;;;;;;;;;;;;26.14;49.63;96441.69;575797;246;63115;-66
2023/01/28 02:58:11;;;;;;;;;;;;;;;26.13;49.67;96445.48;575971;246;66161;-67
2023/01/28 03:00:40;;;;;;;;;;;;;;;26.13;50.33;96442.78;575848;246;68697;-68
2023/01/28 03:03:15;;;;;;;;;;;;;;;26.12;49.04;96438.52;574341;246;62937;-76
2023/01/28 03:06:02;;;;;;;;;;;;;;;26.12;49.80;96439.30;575995;246;66120;-74
2023/01/28 03:39:01;;;;;;;;;;;;;;;25.98;49.66;96460.22;575762;246;67532;-67
2023/01/28 03:41:29;;;;;;;;;;;;;;;25.98;50.48;96454.84;576033;246;66491;-67
2023/01/28 03:46:45;;;;;;;;;;;;;;;25.97;49.93;96463.22;576060;246;69387;-67
2023/01/28 03:49:12;;;;;;;;;;;;;;;25.95;50.25;96462.77;576028;246;68682;-67
2023/01/28 03:51:40;;;;;;;;;;;;;;;25.95;50.60;96460.08;576065;246;65255;-67
2023/01/28 03:54:07;;;;;;;;;;;;;;;25.93;49.80;96465.77;576002;246;66383;-67
2023/01/28 03:56:36;;;;;;;;;;;;;;;25.93;48.99;96473.05;575992;246;66906;-67
2023/01/28 03:59:04;;;;;;;;;;;;;;;25.93;50.23;96478.44;575729;246;63869;-67
2023/01/28 04:01:32;;;;;;;;;;;;;;;25.93;50.30;96478.44;575895;246;69801;-67
2023/01/28 04:04:00;;;;;;;;;;;;;;;25.91;50.04;96484.91;576002;246;69322;-67
2023/01/28 04:06:28;;;;;;;;;;;;;;;25.90;48.68;96480.64;576015;246;62697;-67
2023/01/28 04:09:14;;;;;;;;;;;;;;;25.89;49.63;96484.45;576104;246;43658;-67
2023/01/28 04:11:50;;;;;;;;;;;;;;;25.89;49.71;96494.41;576028;245;47338;-67
2023/01/28 04:14:19;;;;;;;;;;;;;;;25.87;49.49;96486.66;576048;245;43700;-67
2023/01/28 04:16:53;;;;;;;;;;;;;;;25.86;48.43;96487.78;576181;245;46156;-67
2023/01/28 04:19:21;;;;;;;;;;;;;;;25.87;50.75;96500.13;575978;246;66182;-67
2023/01/28 04:21:48;;;;;;;;;;;;;;;25.85;49.96;96494.25;575950;246;62703;-67
2023/01/28 04:24:16;;;;;;;;;;;;;;;25.84;50.26;96489.98;575999;246;69488;-67
2023/01/28 04:26:44;;;;;;;;;;;;;;;25.85;48.97;96490.77;576003;246;66668;-67
2023/01/28 04:29:12;;;;;;;;;;;;;;;25.84;49.54;96492.68;576059;246;63945;-67
2023/01/28 04:31:39;;;;;;;;;;;;;;;25.83;49.16;96495.64;575996;246;66463;-67
2023/01/28 04:34:09;;;;;;;;;;;;;;;25.82;50.14;96494.86;575400;244;50403;-67
2023/01/28 04:36:47;;;;;;;;;;;;;;;25.81;49.23;96498.66;563125;251;46360;-68
2023/01/28 04:39:23;;;;;;;;;;;;;;;25.81;48.76;96501.36;574924;246;48543;-76
2023/01/28 04:42:08;;;;;;;;;;;;;;;25.79;48.96;96503.56;576117;246;39134;-75
2023/01/28 04:44:41;;;;;;;;;;;;;;;25.79;47.95;96503.56;574855;246;46377;-75
2023/01/28 04:47:18;;;;;;;;;;;;;;;25.78;50.57;96503.86;575794;246;49919;-75
2023/01/28 04:49:47;;;;;;;;;;;;;;;25.77;49.91;96510.36;575183;246;50013;-68
2023/01/28 04:52:33;;;;;;;;;;;;;;;25.76;49.20;96506.09;576087;246;39139;-68
2023/01/28 04:55:03;;;;;;;;;;;;;;;25.75;49.43;96515.27;576016;244;49907;-68
2023/01/28 04:57:30;;;;;;;;;;;;;;;25.73;47.97;96523.66;575933;246;69474;-67
2023/01/28 04:59:58;;;;;;;;;;;;;;;25.73;49.15;96531.73;575861;246;62378;-68
2023/01/28 05:02:26;;;;;;;;;;;;;;;25.73;49.21;96537.12;576055;246;69186;-68
2023/01/28 05:04:54;;;;;;;;;;;;;;;25.72;49.35;96530.14;575893;246;68448;-68
2023/01/28 05:07:26;;;;;;;;;;;;;;;25.70;48.94;96529.68;575977;245;42031;-68
2023/01/28 05:09:53;;;;;;;;;;;;;;;25.69;49.24;96536.94;575944;246;68113;-68
2023/01/28 05:12:21;;;;;;;;;;;;;;;25.70;50.08;96540.45;575966;245;68855;-68
2023/01/28 05:14:49;;;;;;;;;;;;;;;25.68;48.18;96537.27;576075;246;62900;-68
2023/01/28 05:17:18;;;;;;;;;;;;;;;25.67;48.32;96549.94;576111;245;45873;-68
2023/01/28 05:19:45;;;;;;;;;;;;;;;25.67;48.93;96546.42;576005;246;68464;-68
2023/01/28 05:22:14;;;;;;;;;;;;;;;25.66;48.82;96542.95;576077;245;41770;-68
2023/01/28 05:24:44;;;;;;;;;;;;;;;25.65;48.95;96549.45;576091;245;46225;-68
2023/01/28 05:27:11;;;;;;;;;;;;;;;25.64;49.41;96547.84;576052;246;66088;-68
2023/01/28 05:29:39;;;;;;;;;;;;;;;25.63;48.18;96550.86;576044;246;65288;-68
2023/01/28 05:32:06;;;;;;;;;;;;;;;25.63;49.17;96550.86;576018;246;68723;-68
2023/01/28 05:34:34;;;;;;;;;;;;;;;25.62;48.82;96549.28;575999;246;68654;-68
2023/01/28 05:37:03;;;;;;;;;;;;;;;25.61;47.91;96556.54;576035;245;42084;-68
2023/01/28 05:39:32;;;;;;;;;;;;;;;25.60;48.63;96562.25;575969;246;69228;-68
2023/01/28 05:42:00;;;;;;;;;;;;;;;25.59;48.47;96566.84;576046;246;68527;-68
2023/01/28 05:44:29;;;;;;;;;;;;;;;25.58;48.17;96565.23;576069;245;42612;-67
2023/01/28 05:47:01;;;;;;;;;;;;;;;25.57;49.41;96571.73;568285;246;48554;-67
2023/01/28 05:49:33;;;;;;;;;;;;;;;25.56;48.10;96575.52;568380;246;48523;-67
2023/01/28 05:52:19;;;;;;;;;;;;;;;25.56;49.41;96572.82;576114;246;39263;-67
2023/01/28 05:54:47;;;;;;;;;;;;;;;25.55;48.94;96573.94;576004;246;69585;-67
2023/01/28 05:57:14;;;;;;;;;;;;;;;25.55;49.73;96578.53;576062;246;68995;-67
2023/01/28 05:59:42;;;;;;;;;;;;;;;25.53;48.45;96578.05;575983;246;66052;-67
2023/01/28 06:02:09;;;;;;;;;;;;;;;25.53;48.18;96581.52;576024;246;68877;-67
2023/01/28 06:04:38;;;;;;;;;;;;;;;25.52;48.33;96587.23;575975;246;68971;-67
2023/01/28 06:07:05;;;;;;;;;;;;;;;25.53;49.45;96583.42;576013;246;65749;-67
2023/01/28 06:09:33;;;;;;;;;;;;;;;25.51;48.08;96589.13;575791;246;69460;-68
2023/01/28 06:12:01;;;;;;;;;;;;;;;25.50;49.50;96592.91;575857;245;68639;-67
2023/01/28 06:14:30;;;;;;;;;;;;;;;25.48;48.65;96592.41;575865;245;46482;-67
2023/01/28 06:17:08;;;;;;;;;;;;;;;25.49;49.40;96599.41;571608;246;50036;-67
2023/01/28 06:19:37;;;;;;;;;;;;;;;25.46;48.82;96594.64;576018;245;47239;-67
2023/01/28 06:22:06;;;;;;;;;;;;;;;25.46;48.38;96606.19;575908;246;62562;-67
2023/01/28 06:24:33;;;;;;;;;;;;;;;25.45;48.90;96612.69;576050;246;66455;-68
2023/01/28 06:27:01;;;;;;;;;;;;;;;25.45;48.03;96609.18;575925;246;66422;-67
2023/01/28 06:29:29;;;;;;;;;;;;;;;25.44;48.99;96619.16;575974;245;66171;-67
2023/01/28 06:31:56;;;;;;;;;;;;;;;25.43;48.86;96614.88;575918;246;69095;-67
2023/01/28 06:34:24;;;;;;;;;;;;;;;25.42;48.37;96618.66;575840;246;66584;-68
2023/01/28 06:36:52;;;;;;;;;;;;;;;25.42;48.01;96626.73;576024;246;65087;-67
2023/01/28 06:39:21;;;;;;;;;;;;;;;25.40;48.68;96623.58;575791;246;66692;-67
2023/01/28 06:41:49;;;;;;;;;;;;;;;25.40;48.42;96630.83;576029;246;68803;-67
2023/01/28 06:44:16;;;;;;;;;;;;;;;25.40;48.85;96638.91;575781;246;65030;-67
2023/01/28 06:46:44;;;;;;;;;;;;;;;25.38;48.31;96641.91;576045;246;68890;-67
2023/01/28 06:49:11;;;;;;;;;;;;;;;25.37;48.94;96648.41;576076;246;68690;-67
2023/01/28 06:51:39;;;;;;;;;;;;;;;25.36;48.86;96648.70;575996;246;66521;-68
2023/01/28 06:54:07;;;;;;;;;;;;;;;25.36;49.25;96654.87;576014;246;68893;-67
2023/01/28 06:56:35;;;;;;;;;;;;;;;25.35;48.48;96655.98;576017;246;68646;-67
2023/01/28 06:59:03;;;;;;;;;;;;;;;25.34;49.21;96654.37;575789;246;63845;-67
2023/01/28 07:01:30;;;;;;;;;;;;;;;25.33;48.20;96652.80;575797;246;68838;-67
2023/01/28 07:03:58;;;;;;;;;;;;;;;25.32;48.48;96653.91;576021;242;68744;-68
2023/01/28 07:06:25;;;;;;;;;;;;;;;25.32;48.58;96653.91;576028;246;63011;-67
2023/01/28 07:08:53;;;;;;;;;;;;;;;25.31;48.71;96651.52;576022;246;68860;-67
2023/01/28 07:11:22;;;;;;;;;;;;;;;25.31;47.85;96651.52;575986;246;69336;-67
2023/01/28 07:13:49;;;;;;;;;;;;;;;25.30;48.76;96648.04;581116;244;63033;-68
2023/01/28 07:16:17;;;;;;;;;;;;;;;25.30;48.52;96655.32;581295;244;68884;-68
2023/01/28 07:18:44;;;;;;;;;;;;;;;25.28;48.37;96650.23;580965;244;69015;-68
2023/01/28 07:21:12;;;;;;;;;;;;;;;25.28;48.96;96655.61;581034;244;65077;-67
2023/01/28 07:23:39;;;;;;;;;;;;;;;25.27;47.83;96654.03;581284;244;68821;-68
2023/01/28 07:26:07;;;;;;;;;;;;;;;25.27;48.62;96656.73;581266;244;66609;-67
2023/01/28 07:28:35;;;;;;;;;;;;;;;25.27;48.32;96661.31;581327;244;63053;-67
2023/01/28 07:31:02;;;;;;;;;;;;;;;25.27;49.21;96656.73;581207;244;66680;-67
2023/01/28 07:33:29;;;;;;;;;;;;;;;25.27;48.47;96654.03;581007;244;66615;-67
2023/01/28 07:35:57;;;;;;;;;;;;;;;25.27;49.78;96659.42;581286;244;65898;-67
2023/01/28 07:38:25;;;;;;;;;;;;;;;25.27;49.49;96664.80;581252;244;68625;-67
2023/01/28 07:40:53;;;;;;;;;;;;;;;25.27;49.45;96672.86;581296;244;67196;-67
2023/01/28 07:43:22;;;;;;;;;;;;;;;25.28;51.07;96673.66;581217;244;46542;-67
2023/01/28 07:45:52;;;;;;;;;;;;;;;25.27;49.57;96675.55;582649;241;47479;-67
2023/01/28 07:48:19;;;;;;;;;;;;;;;25.27;49.73;96670.17;583746;241;66586;-67
2023/01/28 07:50:48;;;;;;;;;;;;;;;25.27;50.18;96672.86;584865;242;62813;-67
2023/01/28 07:53:16;;;;;;;;;;;;;;;25.27;50.22;96667.48;584853;242;68883;-67
2023/01/28 07:55:44;;;;;;;;;;;;;;;25.28;49.89;96668.27;584886;242;68654;-67
2023/01/28 07:58:11;;;;;;;;;;;;;;;25.27;50.57;96667.48;584881;242;65117;-67
2023/01/28 08:00:39;;;;;;;;;;;;;;;25.28;50.08;96674.44;584792;242;68871;-67
2023/01/28 08:03:08;;;;;;;;;;;;;;;25.29;50.47;96667.98;584788;242;66639;-67
2023/01/28 08:05:40;;;;;;;;;;;;;;;25.29;51.83;96670.67;584807;242;64984;-67
2023/01/28 08:08:08;;;;;;;;;;;;;;;25.30;50.42;96668.77;584755;242;66581;-66
2023/01/28 08:10:36;;;;;;;;;;;;;;;25.29;49.88;96681.42;584834;242;66718;-67
2023/01/28 08:13:04;;;;;;;;;;;;;;;25.30;50.34;96671.45;587125;241;63016;-67
2023/01/28 08:15:32;;;;;;;;;;;;;;;25.30;50.90;96677.63;588554;241;66744;-67
2023/01/28 08:18:00;;;;;;;;;;;;;;;25.30;52.00;96677.63;588478;241;68720;-67
2023/01/28 08:20:28;;;;;;;;;;;;;;;25.30;51.73;96688.38;588437;241;62686;-67
2023/01/28 08:23:13;;;;;;;;;;;;;;;25.32;50.81;96690.75;588420;241;66608;-67
2023/01/28 08:25:43;;;;;;;;;;;;;;;25.32;50.13;96690.75;588538;237;48266;-67
2023/01/28 08:28:10;;;;;;;;;;;;;;;25.34;51.61;96693.94;588485;241;65099;-67
2023/01/28 08:30:38;;;;;;;;;;;;;;;25.33;51.64;96695.84;588559;241;68894;-67
2023/01/28 08:33:06;;;;;;;;;;;;;;;25.34;51.40;96700.10;588591;241;68877;-67
2023/01/28 08:35:34;;;;;;;;;;;;;;;25.36;50.39;96697.12;588470;241;65106;-67
2023/01/28 08:38:02;;;;;;;;;;;;;;;25.36;51.23;96700.59;588585;241;68860;-67
2023/01/28 08:40:30;;;;;;;;;;;;;;;25.38;51.83;96701.09;588487;241;68705;-67
2023/01/28 08:42:58;;;;;;;;;;;;;;;25.39;51.15;96702.67;588561;241;65034;-68
2023/01/28 08:45:26;;;;;;;;;;;;;;;25.41;50.71;96713.14;588572;241;68999;-67
2023/01/28 08:47:55;;;;;;;;;;;;;;;25.41;50.85;96705.86;588495;241;66650;-67
2023/01/28 08:50:24;;;;;;;;;;;;;;;25.44;52.19;96710.63;588514;241;65139;-68
2023/01/28 08:52:55;;;;;;;;;;;;;;;25.46;50.93;96702.25;588511;241;68589;-67
2023/01/28 08:55:23;;;;;;;;;;;;;;;25.46;51.71;96703.05;588535;241;68674;-67
2023/01/28 08:57:51;;;;;;;;;;;;;;;25.49;51.44;96707.02;588483;241;65274;-67
2023/01/28 09:00:19;;;;;;;;;;;;;;;25.50;52.00;96699.73;588343;241;69853;-67
2023/01/28 09:02:46;;;;;;;;;;;;;;;25.51;51.58;96696.75;588458;241;68793;-68
2023/01/28 09:05:14;;;;;;;;;;;;;;;25.54;51.14;96703.41;588550;241;64877;-68
2023/01/28 09:07:41;;;;;;;;;;;;;;;25.56;51.13;96703.88;588527;241;68633;-68
2023/01/28 09:10:09;;;;;;;;;;;;;;;25.57;50.27;96697.41;588538;241;68510;-68
2023/01/28 09:12:37;;;;;;;;;;;;;;;25.58;50.24;96694.40;588503;241;62798;-68
2023/01/28 09:15:04;;;;;;;;;;;;;;;25.60;52.00;96699.48;588597;241;66247;-68
2023/01/28 09:17:33;;;;;;;;;;;;;;;25.61;51.03;96699.16;588606;237;68133;-68
2023/01/28 09:20:01;;;;;;;;;;;;;;;25.64;51.27;96697.75;588576;241;62918;-68
2023/01/28 09:22:28;;;;;;;;;;;;;;;25.65;50.82;96699.36;588501;241;66211;-67
2023/01/28 09:24:56;;;;;;;;;;;;;;;25.66;49.55;96696.34;588583;241;66207;-67
2023/01/28 09:27:23;;;;;;;;;;;;;;;25.68;50.29;96696.05;588540;241;62737;-67
2023/01/28 09:29:51;;;;;;;;;;;;;;;25.71;50.85;96692.73;588507;241;68198;-67
2023/01/28 09:32:18;;;;;;;;;;;;;;;25.72;48.84;96683.54;588515;241;68300;-68
2023/01/28 09:34:46;;;;;;;;;;;;;;;25.74;50.54;96692.11;588415;241;65217;-68
2023/01/28 09:37:13;;;;;;;;;;;;;;;25.76;49.32;96683.73;588560;241;68259;-68
2023/01/28 09:39:41;;;;;;;;;;;;;;;25.77;49.66;96686.10;588538;241;66198;-68
2023/01/28 09:42:22;;;;;;;;;;;;;;;25.79;49.41;96689.28;588476;241;63534;-68
2023/01/28 09:45:00;;;;;;;;;;;;;;;25.80;49.57;96688.17;588477;241;66547;-67
2023/01/28 09:47:32;;;;;;;;;;;;;;;25.82;48.89;96685.18;588344;239;68912;-67
2023/01/28 09:50:00;;;;;;;;;;;;;;;25.84;50.25;96691.88;588495;241;62789;-68
2023/01/28 09:52:30;;;;;;;;;;;;;;;25.84;49.46;96689.19;588532;241;69178;-68
2023/01/28 09:55:00;;;;;;;;;;;;;;;25.86;48.23;96695.06;588330;241;66096;-68
2023/01/28 09:57:29;;;;;;;;;;;;;;;25.88;49.94;96694.73;588521;241;62703;-68
2023/01/28 09:59:57;;;;;;;;;;;;;;;25.89;49.31;96694.44;588445;241;66522;-68
2023/01/28 10:02:26;;;;;;;;;;;;;;;25.91;48.50;96694.11;588531;241;66480;-68
2023/01/28 10:05:11;;;;;;;;;;;;;;;25.93;48.46;96693.81;588259;241;64989;-68
2023/01/28 10:07:41;;;;;;;;;;;;;;;25.95;49.94;96691.61;588573;241;66262;-68
2023/01/28 10:10:13;;;;;;;;;;;;;;;25.96;48.73;96693.97;588534;241;66435;-68
2023/01/28 10:12:45;;;;;;;;;;;;;;;25.98;48.05;96701.75;586640;239;65727;-68
2023/01/28 10:15:20;;;;;;;;;;;;;;;25.99;50.03;96690.66;582429;243;68919;-68
2023/01/28 10:17:50;;;;;;;;;;;;;;;26.01;47.69;96691.14;582131;243;68691;-68
2023/01/28 10:20:24;;;;;;;;;;;;;;;26.02;48.68;96687.33;582461;243;65061;-68
2023/01/28 10:22:55;;;;;;;;;;;;;;;26.05;48.82;96691.30;582458;243;68761;-68
2023/01/28 10:25:24;;;;;;;;;;;;;;;26.06;42.42;96692.91;582421;243;66449;-68
2023/01/28 10:27:52;;;;;;;;;;;;;;;26.10;44.05;96689.27;582498;243;62762;-68
2023/01/28 10:30:20;;;;;;;;;;;;;;;26.12;47.78;96692.45;582427;243;68653;-68
2023/01/28 10:33:05;;;;;;;;;;;;;;;26.14;45.40;96689.45;582428;240;69535;-68
2023/01/28 10:35:34;;;;;;;;;;;;;;;26.16;46.24;96694.51;582029;243;64895;-66
2023/01/28 10:38:05;;;;;;;;;;;;;;;26.16;46.67;96692.61;582431;243;69600;-67
2023/01/28 10:40:32;;;;;;;;;;;;;;;26.18;45.77;96684.23;582361;243;68731;-67
2023/01/28 10:42:59;;;;;;;;;;;;;;;26.20;45.46;96690.10;582396;243;65091;-67
2023/01/28 10:45:28;;;;;;;;;;;;;;;26.21;46.99;96695.16;582400;243;68928;-66
2023/01/28 10:47:57;;;;;;;;;;;;;;;26.22;45.75;96694.07;582468;243;66688;-67
2023/01/28 10:50:26;;;;;;;;;;;;;;;26.25;48.23;96696.14;582401;243;63033;-66
2023/01/28 10:52:55;;;;;;;;;;;;;;;26.26;46.88;96692.33;582517;243;68989;-67
2023/01/28 10:55:24;;;;;;;;;;;;;;;26.29;46.80;96698.98;582454;243;68442;-67
2023/01/28 10:57:53;;;;;;;;;;;;;;;26.31;46.89;96704.86;582481;243;65006;-67
2023/01/28 11:00:22;;;;;;;;;;;;;;;26.31;46.69;96700.27;582408;243;69105;-67
2023/01/28 11:02:50;;;;;;;;;;;;;;;26.33;46.05;96694.58;582444;243;66941;-67
2023/01/28 11:05:24;;;;;;;;;;;;;;;26.34;45.46;96704.23;582364;243;63000;-67
2023/01/28 11:07:53;;;;;;;;;;;;;;;26.35;44.81;96703.94;582485;243;54949;-66
2023/01/28 11:10:25;;;;;;;;;;;;;;;26.39;47.07;96700.61;581804;243;66668;-67
2023/01/28 11:12:59;;;;;;;;;;;;;;;26.39;46.20;96701.40;584399;241;65098;-66
2023/01/28 11:15:26;;;;;;;;;;;;;;;26.41;45.94;96698.38;588594;241;66576;-66
2023/01/28 11:17:55;;;;;;;;;;;;;;;26.42;45.70;96705.37;588565;241;68662;-66
2023/01/28 11:20:24;;;;;;;;;;;;;;;26.43;46.55;96699.65;588460;241;65099;-67
2023/01/28 11:22:52;;;;;;;;;;;;;;;26.44;45.37;96698.56;588519;241;68368;-67
2023/01/28 11:25:36;;;;;;;;;;;;;;;26.46;47.66;96703.62;588426;241;68534;-67
2023/01/28 11:28:08;;;;;;;;;;;;;;;26.47;44.54;96700.63;588346;239;46165;-67
2023/01/28 11:30:39;;;;;;;;;;;;;;;26.49;44.79;96695.72;588047;241;69124;-67
2023/01/28 11:33:14;;;;;;;;;;;;;;;26.50;46.65;96691.12;588592;241;68979;-66
2023/01/28 11:35:41;;;;;;;;;;;;;;;26.52;45.89;96694.33;588494;241;62930;-67
2023/01/28 11:38:17;;;;;;;;;;;;;;;26.53;44.27;96693.21;588482;241;66749;-67
2023/01/28 11:40:56;;;;;;;;;;;;;;;26.54;47.38;96689.40;588283;241;66682;-66
2023/01/28 11:43:22;;;;;;;;;;;;;;;26.55;46.33;96696.39;588573;239;62885;-67
2023/01/28 11:45:51;;;;;;;;;;;;;;;26.56;44.52;96697.97;588608;241;68854;-66
2023/01/28 11:48:27;;;;;;;;;;;;;;;26.57;45.16;96691.45;587170;241;68714;-67
2023/01/28 11:50:59;;;;;;;;;;;;;;;26.57;44.46;96686.06;587593;241;62947;-67
2023/01/28 11:53:43;;;;;;;;;;;;;;;26.59;44.61;96689.25;588569;241;66933;-67
2023/01/28 11:56:27;;;;;;;;;;;;;;;26.61;44.92;96691.64;588328;241;68750;-67
2023/01/28 11:59:01;;;;;;;;;;;;;;;26.61;44.71;96691.64;588543;241;44253;-67
2023/01/28 12:01:30;;;;;;;;;;;;;;;26.63;44.27;96692.92;588457;239;68851;-67
2023/01/28 12:04:06;;;;;;;;;;;;;;;26.63;44.67;96692.92;587050;241;68864;-67
2023/01/28 12:06:34;;;;;;;;;;;;;;;26.65;46.01;96697.97;588589;241;65031;-67
2023/01/28 12:09:20;;;;;;;;;;;;;;;26.65;44.26;96692.58;588413;241;66650;-68
2023/01/28 12:12:10;;;;;;;;;;;;;;;26.65;44.39;96696.06;588574;241;68325;-67
2023/01/28 12:14:39;;;;;;;;;;;;;;;26.68;45.32;96697.34;588594;241;65149;-67
2023/01/28 12:17:08;;;;;;;;;;;;;;;26.67;45.36;96701.95;586317;241;66642;-67
2023/01/28 12:19:38;;;;;;;;;;;;;;;26.69;45.78;96697.04;588578;241;66810;-67
2023/01/28 12:22:25;;;;;;;;;;;;;;;26.70;45.24;96700.52;588593;241;63004;-67
2023/01/28 12:25:00;;;;;;;;;;;;;;;26.71;45.48;96697.52;571102;244;65402;-66
2023/01/28 12:27:44;;;;;;;;;;;;;;;26.71;44.85;96697.52;571142;248;68700;-67
2023/01/28 12:30:13;;;;;;;;;;;;;;;26.72;44.31;96704.48;579955;241;62983;-67
2023/01/28 12:32:44;;;;;;;;;;;;;;;26.72;46.41;96699.09;577892;241;66473;-67
2023/01/28 12:35:31;;;;;;;;;;;;;;;26.74;43.72;96701.49;588316;241;68658;-67
2023/01/28 12:38:00;;;;;;;;;;;;;;;26.75;45.31;96711.16;588542;239;63837;-67
2023/01/28 12:40:45;;;;;;;;;;;;;;;26.75;45.84;96709.25;588574;241;68535;-67
2023/01/28 12:43:17;;;;;;;;;;;;;;;26.76;45.53;96707.34;588587;241;68731;-67
2023/01/28 12:45:46;;;;;;;;;;;;;;;26.76;43.61;96713.55;584119;241;63066;-67
2023/01/28 12:48:23;;;;;;;;;;;;;;;26.77;45.03;96709.73;588567;241;66925;-67
2023/01/28 12:50:55;;;;;;;;;;;;;;;26.78;46.39;96707.83;588234;241;70343;-67
2023/01/28 12:53:24;;;;;;;;;;;;;;;26.77;44.00;96709.73;588512;239;65092;-68
2023/01/28 12:55:56;;;;;;;;;;;;;;;26.79;46.01;96710.22;588556;241;66560;-74
2023/01/28 12:58:25;;;;;;;;;;;;;;;26.79;45.67;96715.61;588530;239;68685;-74
2023/01/28 13:00:54;;;;;;;;;;;;;;;26.79;45.29;96715.61;586999;241;65101;-74
2023/01/28 13:03:23;;;;;;;;;;;;;;;26.79;44.51;96718.30;588601;241;69028;-74
2023/01/28 13:05:52;;;;;;;;;;;;;;;26.81;46.05;96720.67;588501;239;66702;-74
2023/01/28 13:08:20;;;;;;;;;;;;;;;26.81;45.09;96726.06;588565;241;65051;-74
2023/01/28 13:10:48;;;;;;;;;;;;;;;26.81;45.53;96731.45;588481;241;68917;-74
2023/01/28 13:13:18;;;;;;;;;;;;;;;26.82;45.37;96726.84;588597;241;68792;-74
2023/01/28 13:15:46;;;;;;;;;;;;;;;26.82;44.97;96729.54;588102;241;65300;-74
2023/01/28 13:18:33;;;;;;;;;;;;;;;26.82;45.61;96730.36;588595;241;66856;-74
2023/01/28 13:21:04;;;;;;;;;;;;;;;26.82;44.32;96729.54;588531;241;66614;-74
2023/01/28 13:23:39;;;;;;;;;;;;;;;26.84;46.13;96732.72;588570;241;65796;-74
2023/01/28 13:26:21;;;;;;;;;;;;;;;26.84;44.86;96732.72;588590;241;68911;-67
2023/01/28 13:28:49;;;;;;;;;;;;;;;26.85;44.47;96724.33;588676;241;66207;-67
2023/01/28 13:31:18;;;;;;;;;;;;;;;26.83;45.02;96736.54;588636;241;62916;-67
2023/01/28 13:33:56;;;;;;;;;;;;;;;26.85;45.59;96745.91;588580;241;69680;-67
2023/01/28 13:36:28;;;;;;;;;;;;;;;26.85;45.32;96742.42;588574;241;68682;-73
2023/01/28 13:39:08;;;;;;;;;;;;;;;26.85;45.66;96743.20;588763;237;43859;-74
2023/01/28 13:41:39;;;;;;;;;;;;;;;26.86;44.93;96744.00;588776;237;45719;-74
2023/01/28 13:44:24;;;;;;;;;;;;;;;26.84;45.43;96748.91;588587;241;68541;-73